Time;durP1;ratioP1;P1;durP2;ratioP2;P2;SDS_P1;SDS_P2;PMS_P1;PMS_P2;Temp;Humidity;BMP_temperature;BMP_pressure;BME280_temperature;BME280_humidity;BME280_pressure;Samples;Min_cycle;Max_cycle;Signal;HPM_P1;HPM_P2
2023/08/15 00:01:08;;;;;;;9.45;4.25;;;19.60;99.90;;;;;;5064552;28;20077;-57
2023/08/15 00:03:33;;;;;;;10.55;4.70;;;19.60;99.90;;;;;;5097443;28;20044;-58
2023/08/15 00:05:59;;;;;;;7.75;4.10;;;19.50;99.90;;;;;;5099134;28;20441;-57
2023/08/15 00:08:25;;;;;;;11.30;4.82;;;19.50;99.90;;;;;;5098387;28;20044;-57
2023/08/15 00:10:50;;;;;;;9.02;4.95;;;19.40;99.90;;;;;;5098393;28;20043;-58
2023/08/15 00:13:16;;;;;;;9.77;4.80;;;19.40;99.90;;;;;;5099417;28;20048;-57
2023/08/15 00:15:42;;;;;;;9.02;4.60;;;19.30;99.90;;;;;;5097324;28;20051;-57
2023/08/15 00:18:07;;;;;;;11.35;4.97;;;19.30;99.90;;;;;;5098799;28;20063;-58
2023/08/15 00:20:33;;;;;;;9.00;5.60;;;19.30;99.90;;;;;;5079068;28;20063;-57
2023/08/15 00:22:59;;;;;;;9.15;5.18;;;19.40;99.90;;;;;;5063785;28;20040;-57
2023/08/15 00:25:25;;;;;;;9.48;4.80;;;19.40;99.90;;;;;;5097881;28;20067;-57
2023/08/15 00:27:51;;;;;;;9.73;5.03;;;19.30;99.90;;;;;;5098214;28;20044;-58
2023/08/15 00:30:16;;;;;;;9.32;4.70;;;19.30;99.90;;;;;;5099035;28;20074;-57
2023/08/15 00:32:42;;;;;;;9.10;5.70;;;19.30;99.90;;;;;;5096874;28;20069;-57
2023/08/15 00:35:10;;;;;;;7.63;4.82;;;19.30;99.90;;;;;;5098959;28;20043;-57
2023/08/15 00:37:36;;;;;;;8.50;4.93;;;19.40;99.90;;;;;;5097116;28;20107;-57
2023/08/15 00:40:02;;;;;;;10.82;5.70;;;19.40;99.90;;;;;;5098881;28;20105;-58
2023/08/15 00:42:28;;;;;;;11.52;6.03;;;19.40;99.90;;;;;;5097627;28;20056;-55
2023/08/15 00:44:54;;;;;;;8.95;5.35;;;19.30;99.90;;;;;;5098057;28;20040;-57
2023/08/15 00:47:20;;;;;;;11.15;5.80;;;19.40;99.90;;;;;;5098826;28;20146;-57
2023/08/15 00:49:46;;;;;;;10.93;6.13;;;19.30;99.90;;;;;;5096685;28;20052;-58
2023/08/15 00:52:13;;;;;;;13.48;6.07;;;19.30;99.90;;;;;;5099123;28;20069;-58
2023/08/15 00:54:46;;;;;;;10.48;5.72;;;19.30;99.90;;;;;;5096482;28;20040;-58
2023/08/15 00:57:12;;;;;;;11.40;5.78;;;19.40;99.90;;;;;;5081438;28;20041;-57
2023/08/15 00:59:41;;;;;;;9.55;6.10;;;19.30;99.90;;;;;;5076759;28;20078;-57
2023/08/15 01:02:07;;;;;;;9.85;5.47;;;19.30;99.90;;;;;;5077435;28;20041;-58
2023/08/15 01:04:32;;;;;;;10.70;5.60;;;19.30;99.90;;;;;;5078133;28;20060;-57
2023/08/15 01:06:58;;;;;;;15.32;6.30;;;19.30;99.90;;;;;;5076275;28;20139;-58
2023/08/15 01:09:24;;;;;;;10.93;6.28;;;19.30;99.90;;;;;;5078475;28;20044;-58
2023/08/15 01:12:22;;;;;;;11.65;5.93;;;19.40;99.90;;;;;;5076077;28;20040;-57
2023/08/15 01:15:01;;;;;;;12.00;5.85;;;19.40;99.90;;;;;;5022284;28;20053;-57
2023/08/15 01:17:56;;;;;;;10.02;5.78;;;19.30;99.90;;;;;;5078349;28;20044;-57
2023/08/15 01:20:27;;;;;;;10.70;5.93;;;19.30;99.90;;;;;;5075986;28;20051;-57
2023/08/15 01:22:54;;;;;;;12.75;6.35;;;19.20;99.90;;;;;;5077940;28;20102;-57
2023/08/15 01:25:19;;;;;;;10.40;5.93;;;19.20;99.90;;;;;;5076912;28;20059;-57
2023/08/15 01:27:45;;;;;;;11.60;6.15;;;19.10;99.90;;;;;;5077469;28;20044;-58
2023/08/15 01:30:13;;;;;;;10.50;6.35;;;19.10;99.90;;;;;;5077992;28;20036;-57
2023/08/15 01:32:55;;;;;;;11.30;6.90;;;19.10;99.90;;;;;;5076090;28;20047;-57
2023/08/15 01:35:27;;;;;;;11.48;6.35;;;19.10;99.90;;;;;;5078125;28;20045;-57
2023/08/15 01:38:01;;;;;;;12.32;7.07;;;19.00;99.90;;;;;;5076003;28;20131;-57
2023/08/15 01:40:29;;;;;;;11.88;6.93;;;18.90;99.90;;;;;;5077680;28;20043;-57
2023/08/15 01:42:57;;;;;;;12.02;6.57;;;19.00;99.90;;;;;;5077858;28;20072;-57
2023/08/15 01:45:24;;;;;;;11.85;7.30;;;19.00;99.90;;;;;;5058078;28;20049;-57
2023/08/15 01:47:51;;;;;;;12.50;6.80;;;18.90;99.90;;;;;;5060314;28;20119;-57
2023/08/15 01:50:17;;;;;;;14.93;7.57;;;18.90;99.90;;;;;;5075634;28;20037;-57
2023/08/15 01:52:43;;;;;;;13.13;7.43;;;18.80;99.90;;;;;;5077650;28;20120;-57
2023/08/15 01:55:09;;;;;;;13.27;7.40;;;18.80;99.90;;;;;;5075753;28;20103;-57
2023/08/15 01:57:35;;;;;;;10.88;6.80;;;18.80;99.90;;;;;;5097599;28;20060;-57
2023/08/15 02:00:00;;;;;;;13.25;7.25;;;18.80;99.90;;;;;;5097204;28;20044;-57
2023/08/15 02:02:26;;;;;;;12.68;7.55;;;18.80;99.90;;;;;;5078226;28;20051;-58
2023/08/15 02:04:52;;;;;;;11.95;7.85;;;18.80;99.90;;;;;;5098510;28;20076;-57
2023/08/15 02:07:17;;;;;;;12.32;7.97;;;18.70;99.90;;;;;;5095815;28;20044;-57
2023/08/15 02:09:43;;;;;;;12.02;7.95;;;18.80;99.90;;;;;;5098152;28;20394;-57
2023/08/15 02:12:09;;;;;;;12.63;7.85;;;18.80;99.90;;;;;;5098988;28;20227;-58
2023/08/15 02:14:34;;;;;;;12.05;7.60;;;18.90;99.90;;;;;;5101484;28;20433;-58
2023/08/15 02:17:00;;;;;;;14.65;8.48;;;18.80;99.90;;;;;;5082140;28;20086;-57
2023/08/15 02:19:26;;;;;;;11.80;7.50;;;18.80;99.90;;;;;;5100130;28;20040;-57
2023/08/15 02:21:52;;;;;;;13.50;7.53;;;18.80;99.90;;;;;;5101402;28;20139;-57
2023/08/15 02:24:18;;;;;;;13.02;7.57;;;18.90;99.90;;;;;;5080884;28;20127;-58
2023/08/15 02:26:43;;;;;;;11.30;7.07;;;18.90;99.90;;;;;;5083139;28;20078;-57
2023/08/15 02:29:09;;;;;;;13.95;7.70;;;18.90;99.90;;;;;;5099009;28;20036;-57
2023/08/15 02:31:43;;;;;;;12.40;7.90;;;18.90;99.90;;;;;;5100932;28;20044;-57
2023/08/15 02:34:09;;;;;;;13.07;7.22;;;18.90;99.90;;;;;;5100231;28;20494;-57
2023/08/15 02:36:35;;;;;;;14.10;7.70;;;18.80;99.90;;;;;;5099773;28;20040;-57
2023/08/15 02:39:00;;;;;;;13.23;8.00;;;18.80;99.90;;;;;;5082924;28;20047;-57
2023/08/15 02:41:26;;;;;;;13.00;7.88;;;18.90;99.90;;;;;;5099071;28;20065;-57
2023/08/15 02:43:52;;;;;;;12.27;7.30;;;18.80;99.90;;;;;;5101280;28;20066;-58
2023/08/15 02:46:17;;;;;;;14.13;8.57;;;18.80;99.90;;;;;;5098809;28;20520;-57
2023/08/15 02:48:44;;;;;;;14.15;9.60;;;18.20;99.90;;;;;;5082459;28;20040;-57
2023/08/15 02:51:09;;;;;;;12.23;8.55;;;18.10;99.90;;;;;;5099676;28;20048;-57
2023/08/15 02:53:36;;;;;;;13.63;9.55;;;18.10;99.90;;;;;;5099842;28;20518;-58
2023/08/15 02:56:02;;;;;;;15.20;9.32;;;18.20;99.90;;;;;;5093180;28;20079;-57
2023/08/15 02:58:27;;;;;;;15.38;8.80;;;18.10;99.90;;;;;;5078473;28;20044;-57
2023/08/15 03:00:53;;;;;;;14.25;9.05;;;18.10;99.90;;;;;;5080534;28;20051;-57
2023/08/15 03:03:19;;;;;;;15.30;9.63;;;18.20;99.90;;;;;;5078192;28;20076;-58
2023/08/15 03:05:44;;;;;;;15.43;9.77;;;17.80;99.90;;;;;;5062216;28;20045;-57
2023/08/15 03:08:10;;;;;;;14.70;9.27;;;18.00;99.90;;;;;;5078479;28;20085;-57
2023/08/15 03:10:36;;;;;;;16.10;10.23;;;18.00;99.90;;;;;;5079819;28;20048;-57
2023/08/15 03:13:03;;;;;;;14.35;10.00;;;17.90;99.90;;;;;;5080084;28;20060;-57
2023/08/15 03:15:28;;;;;;;15.50;9.60;;;17.90;99.90;;;;;;5078510;28;20044;-57
2023/08/15 03:17:56;;;;;;;16.40;9.55;;;18.10;99.90;;;;;;5080005;28;20068;-57
2023/08/15 03:20:22;;;;;;;14.40;9.38;;;18.20;99.90;;;;;;5078400;28;20041;-58
2023/08/15 03:22:47;;;;;;;13.73;8.68;;;18.10;99.90;;;;;;5079436;28;20040;-58
2023/08/15 03:25:13;;;;;;;10.82;8.88;;;18.20;99.90;;;;;;5078300;28;20090;-57
2023/08/15 03:27:39;;;;;;;12.80;8.90;;;18.20;99.90;;;;;;5079139;28;20092;-57
2023/08/15 03:30:05;;;;;;;11.98;8.50;;;18.20;99.90;;;;;;5079360;28;20076;-58
2023/08/15 03:32:31;;;;;;;12.45;9.35;;;18.30;99.90;;;;;;5077789;28;20488;-57
2023/08/15 03:34:57;;;;;;;17.48;9.70;;;18.20;99.90;;;;;;5079772;28;20047;-57
2023/08/15 03:37:23;;;;;;;14.88;8.95;;;18.30;99.90;;;;;;5077660;28;20028;-57
2023/08/15 03:39:48;;;;;;;14.60;9.85;;;18.30;99.90;;;;;;5079691;28;20048;-57
2023/08/15 03:42:14;;;;;;;15.32;10.23;;;18.20;99.90;;;;;;5078330;28;20079;-55
2023/08/15 03:44:40;;;;;;;19.55;10.25;;;18.30;99.90;;;;;;5078957;28;20044;-57
2023/08/15 03:47:05;;;;;;;13.98;10.27;;;18.40;99.90;;;;;;5078817;28;20146;-57
2023/08/15 03:49:31;;;;;;;14.90;9.27;;;18.40;99.90;;;;;;5077819;28;20044;-57
2023/08/15 03:51:57;;;;;;;16.30;10.82;;;18.30;99.90;;;;;;5079652;28;20056;-57
2023/08/15 03:54:23;;;;;;;13.75;9.77;;;18.40;99.90;;;;;;5077147;28;20048;-57
2023/08/15 03:56:49;;;;;;;14.88;9.93;;;18.40;99.90;;;;;;5092902;28;20036;-57
2023/08/15 03:59:15;;;;;;;13.85;9.82;;;18.30;99.90;;;;;;5097999;28;20466;-57
2023/08/15 04:01:40;;;;;;;15.32;10.32;;;18.40;99.90;;;;;;5099161;28;20604;-57
2023/08/15 04:04:06;;;;;;;16.33;10.70;;;18.40;99.90;;;;;;5098808;28;20048;-57
2023/08/15 04:06:32;;;;;;;13.80;9.80;;;18.30;99.90;;;;;;5098183;28;20048;-58
2023/08/15 04:08:58;;;;;;;17.33;10.85;;;18.40;99.90;;;;;;5099660;28;20035;-57
2023/08/15 04:11:24;;;;;;;16.75;10.70;;;18.30;99.90;;;;;;5097577;28;20058;-58
2023/08/15 04:13:49;;;;;;;12.60;9.70;;;18.40;99.90;;;;;;5099190;28;20442;-58
2023/08/15 04:16:15;;;;;;;15.63;9.95;;;18.30;99.90;;;;;;5097308;28;20098;-57
2023/08/15 04:18:41;;;;;;;14.10;9.70;;;18.30;99.90;;;;;;5098726;28;20040;-57
2023/08/15 04:21:06;;;;;;;15.63;10.55;;;18.20;99.90;;;;;;5098501;28;20062;-57
2023/08/15 04:23:32;;;;;;;17.77;10.27;;;18.30;99.90;;;;;;5098199;28;20040;-57
2023/08/15 04:25:58;;;;;;;12.40;9.50;;;18.20;99.90;;;;;;5099218;28;20044;-58
2023/08/15 04:28:23;;;;;;;14.75;10.45;;;18.20;99.90;;;;;;5097011;28;20040;-58
2023/08/15 04:30:49;;;;;;;13.60;10.02;;;18.10;99.90;;;;;;5099240;28;20051;-57
2023/08/15 04:33:15;;;;;;;15.40;10.43;;;18.10;99.90;;;;;;5096531;28;20048;-58
2023/08/15 04:35:40;;;;;;;14.63;10.07;;;18.10;99.90;;;;;;5098630;28;20072;-57
2023/08/15 04:38:06;;;;;;;14.80;10.55;;;17.90;99.90;;;;;;5097644;28;20080;-57
2023/08/15 04:40:40;;;;;;;13.38;10.18;;;17.90;99.90;;;;;;5098206;28;20073;-57
2023/08/15 04:43:07;;;;;;;14.88;10.05;;;17.80;99.90;;;;;;5080979;28;20170;-57
2023/08/15 04:45:33;;;;;;;17.13;11.15;;;17.90;99.90;;;;;;5097017;28;20052;-57
2023/08/15 04:47:59;;;;;;;14.45;10.23;;;18.00;99.90;;;;;;5098724;28;20099;-58
2023/08/15 04:50:24;;;;;;;16.75;10.20;;;18.00;99.90;;;;;;5097132;28;20067;-57
2023/08/15 04:52:50;;;;;;;15.63;10.05;;;17.90;99.90;;;;;;5098352;28;20079;-58
2023/08/15 04:55:16;;;;;;;14.40;9.32;;;18.00;99.90;;;;;;5096093;28;20048;-57
2023/08/15 04:57:42;;;;;;;14.57;9.73;;;18.10;99.90;;;;;;5077575;28;20048;-57
2023/08/15 05:00:09;;;;;;;16.77;10.13;;;18.10;99.90;;;;;;5078708;28;20040;-56
2023/08/15 05:02:35;;;;;;;13.18;9.60;;;18.10;99.90;;;;;;5076448;28;20047;-57
2023/08/15 05:05:05;;;;;;;14.75;9.32;;;18.00;99.90;;;;;;5078965;28;20110;-57
2023/08/15 05:07:32;;;;;;;14.32;9.55;;;18.10;99.90;;;;;;5076618;28;20072;-57
2023/08/15 05:09:58;;;;;;;15.77;9.30;;;18.00;99.90;;;;;;5078017;28;20070;-57
2023/08/15 05:12:23;;;;;;;14.18;9.60;;;18.10;99.90;;;;;;5077108;28;20040;-57
2023/08/15 05:14:49;;;;;;;14.45;9.60;;;18.00;99.90;;;;;;5077772;28;20119;-58
2023/08/15 05:17:14;;;;;;;15.40;9.35;;;18.00;99.90;;;;;;5078158;28;20377;-57
2023/08/15 05:19:40;;;;;;;15.20;10.02;;;18.10;99.90;;;;;;5075904;28;20047;-57
2023/08/15 05:22:06;;;;;;;12.75;9.50;;;18.10;99.90;;;;;;5078732;28;20048;-57
2023/08/15 05:24:31;;;;;;;15.95;8.80;;;18.00;99.90;;;;;;5075915;28;20052;-57
2023/08/15 05:26:57;;;;;;;14.65;9.27;;;18.00;99.90;;;;;;5078407;28;20045;-55
2023/08/15 05:29:23;;;;;;;15.40;9.68;;;18.10;99.90;;;;;;5076363;28;20037;-57
2023/08/15 05:31:48;;;;;;;13.23;9.43;;;18.20;99.90;;;;;;5077718;28;20078;-56
2023/08/15 05:34:14;;;;;;;12.05;9.07;;;18.30;99.90;;;;;;5077868;28;20076;-55
2023/08/15 05:36:40;;;;;;;13.82;9.05;;;18.30;99.90;;;;;;5076458;28;20047;-56
2023/08/15 05:39:05;;;;;;;14.30;9.48;;;18.10;99.90;;;;;;5078623;28;20043;-56
2023/08/15 05:41:31;;;;;;;14.18;9.02;;;18.10;99.90;;;;;;5075724;28;20056;-56
2023/08/15 05:43:57;;;;;;;15.15;9.00;;;18.10;99.90;;;;;;5078423;28;20076;-56
2023/08/15 05:46:22;;;;;;;15.35;8.80;;;18.20;99.90;;;;;;5078291;28;20125;-56
2023/08/15 05:48:48;;;;;;;15.32;8.40;;;18.10;99.90;;;;;;5081307;28;20041;-56
2023/08/15 05:51:14;;;;;;;14.13;8.25;;;18.20;99.90;;;;;;5080890;28;20124;-55
2023/08/15 05:53:40;;;;;;;14.80;8.98;;;18.20;99.90;;;;;;5079974;28;20044;-57
2023/08/15 05:56:06;;;;;;;12.77;8.00;;;18.10;99.90;;;;;;5089663;28;20048;-56
2023/08/15 05:58:31;;;;;;;14.15;8.40;;;18.20;99.90;;;;;;5099975;28;20494;-56
2023/08/15 06:00:57;;;;;;;14.43;8.05;;;18.30;99.90;;;;;;5102200;28;20047;-56
2023/08/15 06:03:23;;;;;;;13.60;8.50;;;18.10;99.90;;;;;;5099815;28;20747;-56
2023/08/15 06:05:48;;;;;;;13.32;7.20;;;18.20;99.90;;;;;;5101815;28;20093;-56
2023/08/15 06:08:14;;;;;;;12.80;7.60;;;18.10;99.90;;;;;;5100576;28;20079;-56
2023/08/15 06:10:39;;;;;;;11.27;6.53;;;18.20;99.90;;;;;;5100820;28;20089;-56
2023/08/15 06:13:05;;;;;;;14.77;7.07;;;18.30;99.90;;;;;;5101706;28;20064;-56
2023/08/15 06:15:31;;;;;;;11.35;6.55;;;18.30;99.90;;;;;;5099705;28;20048;-56
2023/08/15 06:17:57;;;;;;;13.32;6.55;;;18.10;99.90;;;;;;5101711;28;20149;-56
2023/08/15 06:20:23;;;;;;;11.18;6.72;;;18.40;99.90;;;;;;5099479;28;20043;-57
2023/08/15 06:22:48;;;;;;;12.68;6.45;;;18.40;99.90;;;;;;5101417;28;20044;-56
2023/08/15 06:25:14;;;;;;;14.38;5.97;;;18.50;99.90;;;;;;5081474;28;20055;-56
2023/08/15 06:27:40;;;;;;;11.02;5.90;;;18.70;99.90;;;;;;5100879;28;20044;-55
2023/08/15 06:30:06;;;;;;;10.85;5.65;;;18.80;99.90;;;;;;5101123;28;20036;-56
2023/08/15 06:32:32;;;;;;;13.43;6.00;;;18.80;99.90;;;;;;5081210;28;20103;-56
2023/08/15 06:35:00;;;;;;;14.80;6.85;;;19.00;99.90;;;;;;5101361;28;20044;-56
2023/08/15 06:37:25;;;;;;;11.77;4.97;;;19.00;99.90;;;;;;5080852;28;20111;-56
2023/08/15 06:39:51;;;;;;;12.75;5.55;;;19.00;99.90;;;;;;5082900;28;20044;-57
2023/08/15 06:42:17;;;;;;;13.43;6.07;;;19.20;99.90;;;;;;5099582;28;20040;-56
2023/08/15 06:44:43;;;;;;;12.75;5.80;;;19.30;99.90;;;;;;5100744;28;20048;-56
2023/08/15 06:47:09;;;;;;;13.32;5.55;;;19.40;99.90;;;;;;5100858;28;20040;-56
2023/08/15 06:49:35;;;;;;;10.77;4.78;;;19.30;99.90;;;;;;5098993;28;20099;-56
2023/08/15 06:52:00;;;;;;;15.30;4.93;;;19.40;99.90;;;;;;5101100;28;20052;-56
2023/08/15 06:54:26;;;;;;;14.95;4.80;;;19.30;99.90;;;;;;5098639;28;20460;-56
2023/08/15 06:56:52;;;;;;;15.07;5.45;;;19.30;99.90;;;;;;5085805;28;20090;-56
2023/08/15 06:59:18;;;;;;;12.20;4.90;;;19.40;99.90;;;;;;5078671;28;20072;-57
2023/08/15 07:01:43;;;;;;;14.45;5.75;;;19.50;99.90;;;;;;5079997;28;20133;-56
2023/08/15 07:04:10;;;;;;;9.90;5.20;;;19.40;99.90;;;;;;5079703;28;20037;-56
2023/08/15 07:06:37;;;;;;;15.13;5.70;;;19.60;99.90;;;;;;5078686;28;20055;-57
2023/08/15 07:09:06;;;;;;;13.25;5.07;;;19.70;99.90;;;;;;5080685;28;20033;-56
2023/08/15 07:11:32;;;;;;;12.48;4.82;;;19.90;99.90;;;;;;5078230;28;20496;-56
2023/08/15 07:13:57;;;;;;;10.70;4.82;;;19.90;99.90;;;;;;5080135;28;20052;-57
2023/08/15 07:16:23;;;;;;;11.30;5.10;;;19.90;99.90;;;;;;5078372;28;20076;-56
2023/08/15 07:18:49;;;;;;;12.93;4.32;;;19.70;99.90;;;;;;5079790;28;20051;-57
2023/08/15 07:21:15;;;;;;;13.55;4.47;;;19.80;99.90;;;;;;5078835;28;20103;-56
2023/08/15 07:23:40;;;;;;;14.90;4.78;;;20.00;99.90;;;;;;5078797;28;20042;-56
2023/08/15 07:26:06;;;;;;;11.07;4.55;;;19.90;99.90;;;;;;5080326;28;20037;-58
2023/08/15 07:28:31;;;;;;;9.85;4.13;;;20.00;99.90;;;;;;5078246;28;20036;-57
2023/08/15 07:30:57;;;;;;;10.32;3.58;;;20.20;99.90;;;;;;5079833;28;20056;-56
2023/08/15 07:33:23;;;;;;;10.52;4.40;;;20.20;99.90;;;;;;5078447;28;20100;-56
2023/08/15 07:35:49;;;;;;;14.85;4.93;;;20.10;99.90;;;;;;5078923;28;20621;-56
2023/08/15 07:38:14;;;;;;;10.88;3.63;;;20.30;99.90;;;;;;5078938;28;20044;-56
2023/08/15 07:40:41;;;;;;;10.73;3.40;;;20.30;99.90;;;;;;5078329;28;20070;-56
2023/08/15 07:43:07;;;;;;;10.20;3.40;;;20.20;99.90;;;;;;5079718;28;20067;-56
2023/08/15 07:45:32;;;;;;;7.28;3.03;;;20.30;99.90;;;;;;5077638;28;20048;-56
2023/08/15 07:47:58;;;;;;;9.10;3.22;;;20.50;99.90;;;;;;5079346;28;20104;-56
2023/08/15 07:50:28;;;;;;;9.63;3.20;;;20.60;99.90;;;;;;5077551;28;20040;-56
2023/08/15 07:52:55;;;;;;;10.38;3.10;;;20.80;99.90;;;;;;5078794;28;20489;-57
2023/08/15 07:55:21;;;;;;;9.95;2.30;;;20.70;99.90;;;;;;5079611;28;20053;-56
2023/08/15 07:57:47;;;;;;;10.60;3.28;;;20.80;99.90;;;;;;5098157;28;20056;-57
2023/08/15 08:00:14;;;;;;;9.35;2.38;;;20.70;99.90;;;;;;5099762;28;20495;-56
2023/08/15 08:02:44;;;;;;;8.57;2.58;;;20.60;99.90;;;;;;5097631;28;20048;-56
2023/08/15 08:05:11;;;;;;;8.75;2.88;;;20.60;99.90;;;;;;5099693;28;20058;-56
2023/08/15 08:07:39;;;;;;;9.02;2.55;;;20.60;99.90;;;;;;5097413;28;20601;-55
2023/08/15 08:10:06;;;;;;;8.82;2.40;;;20.70;99.90;;;;;;5098581;28;20040;-56
2023/08/15 08:12:31;;;;;;;9.07;2.60;;;20.70;99.90;;;;;;5098676;28;20047;-56
2023/08/15 08:14:57;;;;;;;10.35;2.90;;;20.80;99.90;;;;;;5098201;28;20047;-56
2023/08/15 08:17:23;;;;;;;9.95;2.35;;;21.00;99.90;;;;;;5099370;28;20086;-56
2023/08/15 08:19:49;;;;;;;9.00;2.63;;;21.10;99.90;;;;;;5096914;28;20048;-57
2023/08/15 08:22:15;;;;;;;6.72;2.28;;;21.00;99.90;;;;;;5099161;28;20419;-57
2023/08/15 08:24:41;;;;;;;8.80;2.20;;;21.10;99.90;;;;;;5097511;28;20044;-57
2023/08/15 08:27:06;;;;;;;7.65;2.78;;;21.20;99.90;;;;;;5098857;28;20494;-57
2023/08/15 08:29:32;;;;;;;11.15;2.47;;;21.30;99.90;;;;;;5097608;28;20047;-56
2023/08/15 08:31:58;;;;;;;9.38;2.28;;;21.10;99.90;;;;;;5097793;28;20040;-57
2023/08/15 08:34:24;;;;;;;7.78;2.30;;;21.00;99.90;;;;;;5098976;28;20040;-57
2023/08/15 08:36:50;;;;;;;12.32;2.60;;;20.90;99.90;;;;;;5096429;28;20051;-56
2023/08/15 08:39:15;;;;;;;7.57;2.50;;;21.00;99.90;;;;;;5080858;28;20103;-57
2023/08/15 08:41:41;;;;;;;9.48;2.20;;;21.20;99.90;;;;;;5096433;28;20040;-57
2023/08/15 08:44:09;;;;;;;9.68;2.10;;;21.30;99.90;;;;;;5098638;28;20044;-57
2023/08/15 08:46:36;;;;;;;7.30;2.28;;;21.40;99.90;;;;;;5096883;28;20504;-57
2023/08/15 08:49:04;;;;;;;9.13;2.10;;;21.50;99.90;;;;;;5097628;28;20517;-57
2023/08/15 08:51:32;;;;;;;8.32;2.20;;;21.50;99.50;;;;;;5098560;28;20047;-57
2023/08/15 08:53:58;;;;;;;8.43;2.72;;;21.50;96.80;;;;;;5096427;28;20048;-57
2023/08/15 08:56:27;;;;;;;8.45;2.50;;;21.60;99.90;;;;;;5088050;28;20048;-57
2023/08/15 08:59:00;;;;;;;7.43;2.80;;;21.40;96.80;;;;;;5076081;28;20059;-57
2023/08/15 09:01:31;;;;;;;8.18;2.15;;;21.60;98.80;;;;;;5076924;28;20488;-56
2023/08/15 09:03:57;;;;;;;8.88;1.95;;;21.70;96.10;;;;;;5079039;28;20052;-56
2023/08/15 09:06:26;;;;;;;9.70;2.83;;;21.60;96.10;;;;;;5085660;28;20396;-56
2023/08/15 09:08:52;;;;;;;9.00;2.95;;;21.70;99.10;;;;;;5087791;28;20032;-56
2023/08/15 09:11:19;;;;;;;9.88;2.88;;;21.30;99.90;;;;;;5067934;28;20561;-56
2023/08/15 09:13:49;;;;;;;8.48;2.50;;;21.20;99.90;;;;;;5086706;28;20051;-56
2023/08/15 09:16:16;;;;;;;9.00;3.00;;;21.10;99.90;;;;;;5067656;28;20089;-57
2023/08/15 09:18:42;;;;;;;8.05;2.40;;;21.40;99.90;;;;;;5088351;28;20074;-57
2023/08/15 09:21:08;;;;;;;7.47;1.90;;;21.50;99.90;;;;;;5089283;28;20037;-55
2023/08/15 09:23:34;;;;;;;7.25;1.80;;;21.50;91.80;;;;;;5090433;28;20051;-56
2023/08/15 09:26:13;;;;;;;6.30;1.63;;;21.60;92.50;;;;;;5093113;28;20036;-56
2023/08/15 09:28:40;;;;;;;7.55;1.70;;;21.70;90.80;;;;;;5090319;28;20055;-56
2023/08/15 09:31:08;;;;;;;8.85;2.22;;;22.00;93.20;;;;;;5090855;28;20029;-57
2023/08/15 09:33:38;;;;;;;11.27;2.17;;;22.00;86.90;;;;;;5089431;28;20064;-57
2023/08/15 09:36:08;;;;;;;5.72;1.80;;;22.10;86.50;;;;;;5094846;28;20067;-56
2023/08/15 09:38:37;;;;;;;9.25;2.03;;;22.00;78.70;;;;;;5101692;28;20526;-56
2023/08/15 09:41:03;;;;;;;6.53;1.60;;;22.10;85.40;;;;;;5099726;28;20036;-57
2023/08/15 09:43:30;;;;;;;7.82;1.73;;;21.80;84.50;;;;;;5101607;28;20036;-57
2023/08/15 09:45:59;;;;;;;7.80;1.75;;;21.60;85.00;;;;;;5097470;28;20044;-57
2023/08/15 09:48:29;;;;;;;8.10;1.90;;;21.50;86.20;;;;;;5089226;28;20072;-56
2023/08/15 09:50:56;;;;;;;8.00;1.80;;;21.60;91.80;;;;;;5099065;28;20048;-57
2023/08/15 09:53:23;;;;;;;7.13;2.08;;;21.50;89.80;;;;;;5100592;28;20044;-57
2023/08/15 09:55:50;;;;;;;6.82;2.08;;;21.60;86.80;;;;;;5095958;28;20044;-56
2023/08/15 09:58:19;;;;;;;7.82;1.92;;;22.10;89.90;;;;;;5079577;28;20102;-57
2023/08/15 10:00:48;;;;;;;6.55;1.77;;;22.20;70.20;;;;;;5081410;28;20040;-57
2023/08/15 10:03:19;;;;;;;6.65;1.63;;;22.30;65.00;;;;;;5079426;28;20037;-56
2023/08/15 10:05:51;;;;;;;6.97;1.75;;;22.40;57.40;;;;;;5081063;28;20045;-57
2023/08/15 10:08:18;;;;;;;8.45;2.05;;;22.60;62.50;;;;;;5080316;28;20532;-57
2023/08/15 10:10:48;;;;;;;7.15;2.08;;;22.90;58.50;;;;;;5079629;28;20541;-56
2023/08/15 10:13:16;;;;;;;7.22;2.45;;;22.80;56.50;;;;;;5081320;28;20062;-57
2023/08/15 10:15:42;;;;;;;7.35;1.90;;;22.60;54.10;;;;;;5079078;28;20120;-56
2023/08/15 10:18:09;;;;;;;8.38;1.60;;;22.40;56.70;;;;;;5080618;28;20052;-57
2023/08/15 10:20:38;;;;;;;7.50;1.67;;;22.70;60.30;;;;;;5079097;28;20094;-56
2023/08/15 10:23:07;;;;;;;6.80;2.17;;;22.70;60.50;;;;;;5080342;28;20504;-56
2023/08/15 10:25:35;;;;;;;11.13;2.35;;;22.50;63.40;;;;;;5080683;28;20040;-56
2023/08/15 10:28:08;;;;;;;7.65;2.17;;;22.20;68.50;;;;;;5079171;28;20060;-57
2023/08/15 10:30:41;;;;;;;6.68;1.90;;;22.40;68.00;;;;;;5080964;28;20044;-56
2023/08/15 10:33:12;;;;;;;6.45;1.80;;;22.50;71.10;;;;;;5078051;28;20128;-56
2023/08/15 10:35:48;;;;;;;7.18;1.95;;;22.60;57.00;;;;;;5080623;28;20136;-55
2023/08/15 10:38:16;;;;;;;7.38;1.55;;;22.60;55.00;;;;;;5079853;28;20045;-56
2023/08/15 10:40:43;;;;;;;6.47;1.92;;;22.70;55.70;;;;;;5079783;28;20048;-57
2023/08/15 10:43:23;;;;;;;6.57;1.88;;;22.70;50.70;;;;;;5081210;28;20036;-57
2023/08/15 10:45:52;;;;;;;5.45;1.42;;;22.60;50.90;;;;;;5078836;28;20040;-57
2023/08/15 10:48:37;;;;;;;4.90;1.58;;;23.00;48.20;;;;;;5080296;28;20049;-57
2023/08/15 10:51:04;;;;;;;5.15;1.80;;;23.20;40.80;;;;;;5079935;28;20050;-56
2023/08/15 10:53:30;;;;;;;6.10;1.45;;;23.20;43.30;;;;;;5078990;28;20032;-58
2023/08/15 10:55:58;;;;;;;5.53;1.58;;;23.10;41.50;;;;;;5087176;28;20048;-57
2023/08/15 10:58:25;;;;;;;4.80;1.35;;;23.20;40.00;;;;;;5098807;28;20480;-58
2023/08/15 11:00:51;;;;;;;5.97;1.38;;;23.40;37.20;;;;;;5100596;28;20051;-58
2023/08/15 11:03:17;;;;;;;3.30;1.13;;;22.90;31.00;;;;;;5097796;28;20044;-58
2023/08/15 11:05:42;;;;;;;6.40;1.30;;;23.00;33.40;;;;;;5100375;28;20058;-57
2023/08/15 11:08:13;;;;;;;6.78;1.73;;;23.00;38.40;;;;;;5098940;28;20032;-57
2023/08/15 11:10:44;;;;;;;6.65;1.75;;;23.00;43.00;;;;;;5099044;28;20082;-57
2023/08/15 11:13:10;;;;;;;4.18;1.20;;;22.90;46.40;;;;;;5100696;28;20071;-57
2023/08/15 11:15:36;;;;;;;5.55;1.30;;;23.00;36.60;;;;;;5098450;28;20048;-58
2023/08/15 11:18:02;;;;;;;5.53;1.13;;;23.10;29.00;;;;;;5100304;28;20080;-57
2023/08/15 11:20:29;;;;;;;4.43;0.90;;;23.20;25.10;;;;;;5098692;28;20618;-57
2023/08/15 11:22:58;;;;;;;6.05;1.55;;;23.60;30.80;;;;;;5093931;28;20039;-58
2023/08/15 11:25:24;;;;;;;3.83;1.50;;;23.40;30.10;;;;;;5069911;28;20053;-57
2023/08/15 11:27:50;;;;;;;4.75;1.23;;;23.40;31.30;;;;;;5087718;28;20069;-58
2023/08/15 11:30:17;;;;;;;7.55;1.67;;;23.60;32.30;;;;;;5090695;28;20100;-58
2023/08/15 11:32:43;;;;;;;5.63;1.48;;;23.10;27.20;;;;;;5086710;28;20448;-56
2023/08/15 11:35:10;;;;;;;6.45;1.70;;;23.20;32.50;;;;;;5071767;28;20137;-56
2023/08/15 11:37:37;;;;;;;6.15;1.55;;;23.40;24.70;;;;;;5088727;28;20040;-57
2023/08/15 11:40:04;;;;;;;4.13;1.27;;;23.10;25.60;;;;;;5087975;28;20047;-57
2023/08/15 11:42:30;;;;;;;4.07;1.23;;;23.00;29.40;;;;;;5088530;28;20082;-57
2023/08/15 11:45:02;;;;;;;6.30;1.48;;;22.90;28.10;;;;;;5088833;28;20090;-58
2023/08/15 11:47:30;;;;;;;4.60;1.25;;;23.10;33.70;;;;;;5095590;28;20051;-57
2023/08/15 11:49:56;;;;;;;4.85;1.33;;;23.10;24.90;;;;;;5096913;28;20514;-57
2023/08/15 11:52:21;;;;;;;5.13;1.30;;;23.10;31.20;;;;;;5099356;28;20040;-57
2023/08/15 11:54:47;;;;;;;3.60;1.10;;;23.40;27.70;;;;;;5096925;28;20099;-57
2023/08/15 11:57:13;;;;;;;4.60;1.42;;;23.60;30.00;;;;;;5081491;28;20044;-58
2023/08/15 11:59:38;;;;;;;8.55;1.58;;;23.70;24.80;;;;;;5077689;28;20071;-58
2023/08/15 12:02:04;;;;;;;4.05;1.17;;;23.30;28.00;;;;;;5077646;28;20051;-57
2023/08/15 12:04:35;;;;;;;4.38;1.40;;;23.30;31.90;;;;;;5079489;28;20094;-58
2023/08/15 12:07:01;;;;;;;;;;;22.90;33.90;;;;;;5077715;28;20058;-60
2023/08/15 12:09:28;;;;;;;6.15;1.40;;;22.90;33.40;;;;;;5079633;28;19956;-57
2023/08/15 12:11:54;;;;;;;7.18;1.75;;;23.00;34.10;;;;;;5077473;28;20605;-58
2023/08/15 12:14:21;;;;;;;5.32;1.45;;;23.30;32.40;;;;;;5079020;28;20044;-57
2023/08/15 12:16:47;;;;;;;6.18;1.50;;;23.10;32.60;;;;;;5078436;28;20044;-57
2023/08/15 12:19:16;;;;;;;5.57;1.45;;;23.30;31.70;;;;;;5077509;28;20087;-57
2023/08/15 12:21:41;;;;;;;6.57;1.45;;;23.30;33.70;;;;;;5078931;28;20036;-57
2023/08/15 12:24:07;;;;;;;5.55;1.30;;;23.50;34.50;;;;;;5076832;28;20049;-57
2023/08/15 12:26:33;;;;;;;6.32;2.08;;;23.60;36.50;;;;;;5079026;28;20132;-57
2023/08/15 12:28:58;;;;;;;5.30;1.25;;;23.90;30.30;;;;;;5076981;28;20043;-57
2023/08/15 12:31:24;;;;;;;7.63;1.52;;;23.70;31.10;;;;;;5078731;28;20072;-57
2023/08/15 12:33:50;;;;;;;5.35;1.52;;;23.60;35.10;;;;;;5077763;28;20040;-57
2023/08/15 12:36:15;;;;;;;5.22;1.85;;;23.70;38.40;;;;;;5077296;28;20131;-57
2023/08/15 12:38:42;;;;;;;6.68;1.50;;;23.80;35.90;;;;;;5079021;28;20072;-57